createdAt,value
2019-02-01T00:00:50.189Z,0.00
2019-02-01T00:01:50.323Z,0.00
2019-02-01T00:02:50.227Z,0.00
2019-02-01T00:03:50.360Z,0.00
2019-02-01T00:04:50.263Z,0.00
2019-02-01T00:05:50.284Z,0.00
2019-02-01T00:06:50.414Z,0.00
2019-02-01T00:07:50.432Z,0.00
2019-02-01T00:08:50.530Z,0.00
2019-02-01T00:09:50.467Z,0.00
2019-02-01T00:10:50.382Z,0.00
2019-02-01T00:11:50.373Z,0.00
2019-02-01T00:12:50.393Z,0.00
2019-02-01T00:13:50.525Z,0.00
2019-02-01T00:14:50.564Z,0.00
2019-02-01T00:15:50.460Z,0.00
2019-02-01T00:16:50.594Z,0.00
2019-02-01T00:18:00.294Z,0.00
2019-02-01T00:18:50.734Z,0.00
2019-02-01T00:19:51.612Z,0.00
2019-02-01T00:20:50.672Z,0.00
2019-02-01T00:21:50.584Z,0.00
2019-02-01T00:22:50.581Z,0.00
2019-02-01T00:23:50.692Z,0.00
2019-02-01T00:24:51.995Z,0.00
2019-02-01T00:25:50.633Z,0.00
2019-02-01T00:26:50.656Z,0.00
2019-02-01T00:27:50.692Z,0.00
2019-02-01T00:28:50.799Z,0.00
2019-02-01T00:29:50.742Z,0.00
2019-02-01T00:30:50.850Z,0.00
2019-02-01T00:31:50.870Z,0.00
2019-02-01T00:32:50.781Z,0.00
2019-02-01T00:33:50.850Z,0.00
2019-02-01T00:34:50.826Z,0.00
2019-02-01T00:35:50.825Z,0.00
2019-02-01T00:36:50.834Z,0.00
2019-02-01T00:37:50.853Z,0.00
2019-02-01T00:38:51.052Z,0.00
2019-02-01T00:39:50.896Z,0.00
2019-02-01T00:40:50.925Z,0.00
2019-02-01T00:41:51.059Z,0.00
2019-02-01T00:42:51.065Z,0.00
2019-02-01T00:43:51.124Z,0.00
2019-02-01T00:44:50.994Z,0.00
2019-02-01T00:45:51.010Z,0.00
2019-02-01T00:46:51.033Z,0.00
2019-02-01T00:47:51.081Z,0.00
2019-02-01T00:48:51.121Z,0.00
2019-02-01T00:49:51.067Z,0.00
2019-02-01T00:50:51.102Z,0.00
2019-02-01T00:51:51.128Z,0.00
2019-02-01T00:52:51.123Z,0.00
2019-02-01T00:53:51.256Z,0.00
2019-02-01T00:54:51.279Z,0.00
2019-02-01T00:55:51.184Z,0.00
2019-02-01T00:56:51.210Z,0.00
2019-02-01T00:57:51.225Z,0.00
2019-02-01T00:58:51.300Z,0.00
2019-02-01T00:59:51.273Z,0.00
2019-02-01T01:00:51.262Z,0.00
2019-02-01T01:01:51.384Z,0.00
2019-02-01T01:02:51.320Z,0.00
2019-02-01T01:03:51.450Z,0.00
2019-02-01T01:04:51.457Z,0.00
2019-02-01T01:05:51.374Z,0.00
2019-02-01T01:06:51.446Z,0.00
2019-02-01T01:07:51.408Z,0.00
2019-02-01T01:08:51.532Z,0.00
2019-02-01T01:09:51.578Z,0.00
2019-02-01T01:10:51.430Z,0.00
2019-02-01T01:11:51.482Z,0.00
2019-02-01T01:12:51.486Z,0.00
2019-02-01T01:13:51.625Z,0.00
2019-02-01T01:14:51.669Z,0.00
2019-02-01T01:15:51.530Z,0.00
2019-02-01T01:16:51.543Z,0.00
2019-02-01T01:17:51.598Z,0.00
2019-02-01T01:18:51.605Z,0.00
2019-02-01T01:19:51.824Z,0.00
2019-02-01T01:20:51.646Z,0.00
2019-02-01T01:21:51.654Z,0.00
2019-02-01T01:22:51.662Z,0.00
2019-02-01T01:23:51.799Z,0.00
2019-02-01T01:24:51.962Z,0.00
2019-02-01T01:25:51.717Z,0.00
2019-02-01T01:26:51.857Z,0.00
2019-02-01T01:27:51.743Z,0.00
2019-02-01T01:28:51.758Z,0.00
2019-02-01T01:29:51.891Z,0.00
2019-02-01T01:30:51.790Z,0.00
2019-02-01T01:31:51.834Z,0.00
2019-02-01T01:32:51.952Z,0.00
2019-02-01T01:33:51.969Z,0.00
2019-02-01T01:34:51.925Z,0.00
2019-02-01T01:35:51.890Z,0.00
2019-02-01T01:36:51.908Z,0.00
2019-02-01T01:37:51.922Z,0.00
2019-02-01T01:38:52.039Z,0.00
2019-02-01T01:39:51.969Z,0.00
2019-02-01T01:40:51.970Z,0.00
2019-02-01T01:41:52.036Z,0.00
2019-02-01T01:42:52.247Z,0.00
2019-02-01T01:43:52.250Z,0.00
2019-02-01T01:44:52.163Z,0.00
2019-02-01T01:45:52.063Z,0.00
2019-02-01T01:46:52.093Z,0.00
2019-02-01T01:47:52.216Z,0.00
2019-02-01T01:48:52.332Z,0.00
2019-02-01T01:49:52.260Z,0.00
2019-02-01T01:50:52.159Z,0.00
2019-02-01T01:51:52.164Z,0.00
2019-02-01T01:52:52.191Z,0.00
2019-02-01T01:53:52.235Z,0.00
2019-02-01T01:54:52.215Z,0.00
2019-02-01T01:55:52.249Z,0.00
2019-02-01T01:56:52.250Z,0.00
2019-02-01T01:57:52.274Z,0.00
2019-02-01T01:58:52.390Z,0.00
2019-02-01T01:59:52.426Z,0.00
2019-02-01T02:00:52.343Z,0.00
2019-02-01T02:01:52.458Z,0.00
2019-02-01T02:02:52.390Z,0.00
2019-02-01T02:03:52.480Z,0.00
2019-02-01T02:04:52.391Z,0.00
2019-02-01T02:05:52.404Z,0.00
2019-02-01T02:06:52.432Z,0.00
2019-02-01T02:07:52.565Z,0.00
2019-02-01T02:08:52.565Z,0.00
2019-02-01T02:09:52.599Z,0.00
2019-02-01T02:10:52.513Z,0.00
2019-02-01T02:11:52.531Z,0.00
2019-02-01T02:12:52.581Z,0.00
2019-02-01T02:13:52.657Z,0.00
2019-02-01T02:14:52.580Z,0.00
2019-02-01T02:15:52.704Z,0.00
2019-02-01T02:16:52.719Z,0.00
2019-02-01T02:17:52.737Z,0.00
2019-02-01T02:18:52.904Z,0.00
2019-02-01T02:19:52.776Z,0.00
2019-02-01T02:20:52.785Z,0.00
2019-02-01T02:21:52.811Z,0.00
2019-02-01T02:22:52.828Z,0.00
2019-02-01T02:23:53.000Z,0.00
2019-02-01T02:24:52.724Z,0.00
2019-02-01T02:25:52.875Z,0.00
2019-02-01T02:26:52.786Z,0.00
2019-02-01T02:27:52.909Z,0.00
2019-02-01T02:28:52.982Z,0.00
2019-02-01T02:29:52.835Z,0.00
2019-02-01T02:30:52.967Z,0.00
2019-02-01T02:31:52.983Z,0.00
2019-02-01T02:32:52.893Z,0.00
2019-02-01T02:33:53.044Z,0.00
2019-02-01T02:34:52.920Z,0.00
2019-02-01T02:35:52.945Z,0.00
2019-02-01T02:36:52.973Z,0.00
2019-02-01T02:37:53.082Z,0.00
2019-02-01T02:38:53.143Z,0.00
2019-02-01T02:39:53.120Z,0.00
2019-02-01T02:40:53.045Z,0.00
2019-02-01T02:41:53.055Z,0.00
2019-02-01T02:42:53.057Z,0.00
2019-02-01T02:43:53.113Z,0.00
2019-02-01T02:44:53.192Z,0.00
2019-02-01T02:45:53.210Z,0.00
2019-02-01T02:46:53.120Z,0.00
2019-02-01T02:47:53.149Z,0.00
2019-02-01T02:49:00.354Z,0.00
2019-02-01T02:49:53.217Z,0.00
2019-02-01T02:50:53.169Z,0.00
2019-02-01T02:51:53.204Z,0.00
2019-02-01T02:52:53.426Z,0.00
2019-02-01T02:53:53.355Z,0.00
2019-02-01T02:54:53.355Z,0.00
2019-02-01T02:55:53.389Z,0.00
2019-02-01T02:56:53.279Z,0.00
2019-02-01T02:57:53.412Z,0.00
2019-02-01T02:58:53.298Z,0.00
2019-02-01T02:59:53.599Z,0.00
2019-02-01T03:00:53.465Z,0.00
2019-02-01T03:01:53.365Z,0.00
2019-02-01T03:02:53.443Z,0.00
2019-02-01T03:03:53.395Z,0.00
2019-02-01T03:04:53.538Z,0.00
2019-02-01T03:05:53.437Z,0.00
2019-02-01T03:06:53.448Z,0.00
2019-02-01T03:07:53.446Z,0.00
2019-02-01T03:08:53.599Z,0.00
2019-02-01T03:09:53.728Z,0.00
2019-02-01T03:10:53.540Z,0.00
2019-02-01T03:11:53.538Z,0.00
2019-02-01T03:12:53.557Z,0.00
2019-02-01T03:13:53.689Z,0.00
2019-02-01T03:14:53.682Z,0.00
2019-02-01T03:15:53.607Z,0.00
2019-02-01T03:16:53.732Z,0.00
2019-02-01T03:17:53.654Z,0.00
2019-02-01T03:18:53.649Z,0.00
2019-02-01T03:19:53.881Z,0.00
2019-02-01T03:20:53.807Z,0.00
2019-02-01T03:21:53.693Z,0.00
2019-02-01T03:22:53.711Z,0.00
2019-02-01T03:23:53.787Z,0.00
2019-02-01T03:24:53.861Z,0.00
2019-02-01T03:25:53.991Z,0.00
2019-02-01T03:26:53.901Z,0.00
2019-02-01T03:27:53.890Z,0.00
2019-02-01T03:28:53.823Z,0.00
2019-02-01T03:29:53.843Z,0.00
2019-02-01T03:30:54.075Z,0.00
2019-02-01T03:31:54.040Z,0.00
2019-02-01T03:32:53.882Z,0.00
2019-02-01T03:33:53.921Z,0.00
2019-02-01T03:34:57.732Z,0.00
2019-02-01T03:35:54.101Z,0.00
2019-02-01T03:36:54.067Z,0.00
2019-02-01T03:37:53.949Z,0.00
2019-02-01T03:38:53.983Z,0.00
2019-02-01T03:39:53.990Z,0.00
2019-02-01T03:40:54.287Z,0.00
2019-02-01T03:41:54.042Z,0.00
2019-02-01T03:42:54.091Z,0.00
2019-02-01T03:43:54.179Z,0.00
2019-02-01T03:44:54.088Z,0.00
2019-02-01T03:45:54.168Z,0.00
2019-02-01T03:46:54.115Z,0.00
2019-02-01T03:47:54.250Z,0.00
2019-02-01T03:48:54.264Z,0.00
2019-02-01T03:49:56.031Z,0.00
2019-02-01T03:50:54.410Z,0.00
2019-02-01T03:51:54.191Z,0.00
2019-02-01T03:52:54.215Z,0.00
2019-02-01T03:53:54.242Z,0.00
2019-02-01T03:54:54.242Z,0.00
2019-02-01T03:55:54.491Z,0.00
2019-02-01T03:56:54.407Z,0.00
2019-02-01T03:57:54.305Z,0.00
2019-02-01T03:58:54.432Z,0.00
2019-02-01T03:59:54.451Z,0.00
2019-02-01T04:00:54.560Z,0.00
2019-02-01T04:01:54.490Z,0.00
2019-02-01T04:02:54.360Z,0.00
2019-02-01T04:03:54.402Z,0.00
2019-02-01T04:04:54.525Z,0.00
2019-02-01T04:05:54.642Z,0.00
2019-02-01T04:06:54.444Z,0.00
2019-02-01T04:07:54.580Z,0.00
2019-02-01T04:08:54.484Z,0.00
2019-02-01T04:09:54.503Z,0.00
2019-02-01T04:10:54.728Z,0.00
2019-02-01T04:11:54.535Z,0.00
2019-02-01T04:12:54.656Z,0.00
2019-02-01T04:13:54.567Z,0.00
2019-02-01T04:14:54.706Z,0.00
2019-02-01T04:15:54.735Z,0.00
2019-02-01T04:16:54.604Z,0.00
2019-02-01T04:17:54.744Z,0.00
2019-02-01T04:18:54.762Z,0.00
2019-02-01T04:19:54.781Z,0.00
2019-02-01T04:20:54.938Z,0.00
2019-02-01T04:21:54.709Z,0.00
2019-02-01T04:22:54.716Z,0.00
2019-02-01T04:23:54.772Z,0.00
2019-02-01T04:24:54.797Z,0.00
2019-02-01T04:25:54.976Z,0.00
2019-02-01T04:26:54.794Z,0.00
2019-02-01T04:27:54.912Z,0.00
2019-02-01T04:28:54.808Z,0.00
2019-02-01T04:29:54.827Z,0.00
2019-02-01T04:30:55.062Z,0.00
2019-02-01T04:31:54.972Z,0.00
2019-02-01T04:32:54.983Z,0.00
2019-02-01T04:33:55.002Z,0.00
2019-02-01T04:34:54.904Z,0.00
2019-02-01T04:35:55.096Z,0.00
2019-02-01T04:36:54.936Z,0.00
2019-02-01T04:37:54.963Z,0.00
2019-02-01T04:38:54.971Z,0.00
2019-02-01T04:39:55.099Z,0.00
2019-02-01T04:40:55.156Z,0.00
2019-02-01T04:41:55.136Z,0.00
2019-02-01T04:42:55.150Z,0.00
2019-02-01T04:43:55.036Z,0.00
2019-02-01T04:44:55.187Z,0.00
2019-02-01T04:45:55.140Z,0.00
2019-02-01T04:46:55.099Z,0.00
2019-02-01T04:47:55.121Z,0.00
2019-02-01T04:48:55.135Z,0.00
2019-02-01T04:50:03.411Z,0.00
2019-02-01T04:50:55.376Z,0.00
2019-02-01T04:51:55.190Z,0.00
2019-02-01T04:52:55.308Z,0.00
2019-02-01T04:53:55.199Z,0.00
2019-02-01T04:54:55.218Z,0.00
2019-02-01T04:55:55.291Z,0.00
2019-02-01T04:56:55.262Z,0.00
2019-02-01T04:57:55.445Z,0.00
2019-02-01T04:58:55.294Z,0.00
2019-02-01T04:59:55.436Z,0.00
2019-02-01T05:00:55.489Z,0.00
2019-02-01T05:01:55.455Z,0.00
2019-02-01T05:02:55.367Z,0.00
2019-02-01T05:03:55.498Z,0.00
2019-02-01T05:04:55.403Z,0.00
2019-02-01T05:05:55.530Z,0.00
2019-02-01T05:06:55.432Z,0.00
2019-02-01T05:07:55.464Z,0.00
2019-02-01T05:08:56.664Z,0.00
2019-02-01T05:09:55.586Z,0.00
2019-02-01T05:10:55.603Z,0.00
2019-02-01T05:11:55.617Z,0.00
2019-02-01T05:12:55.510Z,0.00
2019-02-01T05:13:55.800Z,0.00
2019-02-01T05:14:58.837Z,0.00
2019-02-01T05:15:55.683Z,0.00
2019-02-01T05:16:55.698Z,0.00
2019-02-01T05:17:55.614Z,0.00
2019-02-01T05:18:55.723Z,0.00
2019-02-01T05:19:55.644Z,0.00
2019-02-01T05:20:55.768Z,0.00
2019-02-01T05:21:55.656Z,0.00
2019-02-01T05:22:55.790Z,0.00
2019-02-01T05:23:55.795Z,0.00
2019-02-01T05:24:55.822Z,0.00
2019-02-01T05:25:55.728Z,0.00
2019-02-01T05:26:55.744Z,0.00
2019-02-01T05:27:55.746Z,0.00
2019-02-01T05:28:55.875Z,0.00
2019-02-01T05:29:55.769Z,0.00
2019-02-01T05:30:55.834Z,0.00
2019-02-01T05:31:55.847Z,0.00
2019-02-01T05:32:55.834Z,0.00
2019-02-01T05:33:55.961Z,0.00
2019-02-01T05:34:55.939Z,0.00
2019-02-01T05:35:56.004Z,0.00
2019-02-01T05:36:55.916Z,0.00
2019-02-01T05:37:56.027Z,0.00
2019-02-01T05:38:56.025Z,0.00
2019-02-01T05:39:56.072Z,0.00
2019-02-01T05:40:55.960Z,0.00
2019-02-01T05:41:55.985Z,0.00
2019-02-01T05:42:58.203Z,0.00
2019-02-01T05:43:56.278Z,0.00
2019-02-01T05:44:56.142Z,0.00
2019-02-01T05:45:56.035Z,0.00
2019-02-01T05:46:56.038Z,0.00
2019-02-01T05:47:56.199Z,0.00
2019-02-01T05:48:56.253Z,0.00
2019-02-01T05:49:56.107Z,0.00
2019-02-01T05:50:56.116Z,0.00
2019-02-01T05:51:56.151Z,0.00
2019-02-01T05:52:56.281Z,0.00
2019-02-01T05:53:56.332Z,0.00
2019-02-01T05:54:56.311Z,0.00
2019-02-01T05:55:56.312Z,0.00
2019-02-01T05:56:56.329Z,0.00
2019-02-01T05:57:56.292Z,0.00
2019-02-01T05:58:56.482Z,0.00
2019-02-01T05:59:56.281Z,0.00
2019-02-01T06:00:56.297Z,0.00
2019-02-01T06:01:56.291Z,0.00
2019-02-01T06:02:56.318Z,0.00
2019-02-01T06:03:56.394Z,0.00
2019-02-01T06:04:56.388Z,0.00
2019-02-01T06:05:56.474Z,0.00
2019-02-01T06:06:56.484Z,0.00
2019-02-01T06:07:56.504Z,0.00
2019-02-01T06:08:56.578Z,0.00
2019-02-01T06:09:56.418Z,0.00
2019-02-01T06:10:56.559Z,0.00
2019-02-01T06:11:56.452Z,0.00
2019-02-01T06:12:56.582Z,0.00
2019-02-01T06:13:56.747Z,0.00
2019-02-01T06:14:56.498Z,0.00
2019-02-01T06:15:56.511Z,0.00
2019-02-01T06:16:56.533Z,0.00
2019-02-01T06:17:56.661Z,0.00
2019-02-01T06:18:56.735Z,0.00
2019-02-01T06:19:56.585Z,0.00
2019-02-01T06:20:56.708Z,0.00
2019-02-01T06:21:56.604Z,0.00
2019-02-01T06:22:56.627Z,0.00
2019-02-01T06:23:56.670Z,0.00
2019-02-01T06:24:56.671Z,0.00
2019-02-01T06:25:56.669Z,0.00
2019-02-01T06:26:56.681Z,0.00
2019-02-01T06:27:56.819Z,0.00
2019-02-01T06:28:56.885Z,0.00
2019-02-01T06:29:56.743Z,0.00
2019-02-01T06:30:56.751Z,0.00
2019-02-01T06:31:56.770Z,0.00
2019-02-01T06:32:56.796Z,0.00
2019-02-01T06:33:56.898Z,0.00
2019-02-01T06:34:56.933Z,0.00
2019-02-01T06:35:56.835Z,0.00
2019-02-01T06:36:56.848Z,0.00
2019-02-01T06:37:56.876Z,0.00
2019-02-01T06:38:56.970Z,0.00
2019-02-01T06:39:56.883Z,0.00
2019-02-01T06:40:57.017Z,0.00
2019-02-01T06:41:56.915Z,0.00
2019-02-01T06:42:56.941Z,0.00
2019-02-01T06:43:57.129Z,0.00
2019-02-01T06:44:57.082Z,0.00
2019-02-01T06:45:56.984Z,0.00
2019-02-01T06:46:57.161Z,0.00
2019-02-01T06:47:57.007Z,0.00
2019-02-01T06:48:57.034Z,0.00
2019-02-01T06:49:57.063Z,0.00
2019-02-01T06:50:57.084Z,0.00
2019-02-01T06:51:57.117Z,0.00
2019-02-01T06:52:57.074Z,0.00
2019-02-01T06:53:57.107Z,0.00
2019-02-01T06:54:57.297Z,0.00
2019-02-01T06:55:57.155Z,0.00
2019-02-01T06:56:57.147Z,0.00
2019-02-01T06:57:57.435Z,0.00
2019-02-01T06:58:57.217Z,0.00
2019-02-01T06:59:57.204Z,0.00
2019-02-01T07:00:57.329Z,0.00
2019-02-01T07:01:57.226Z,0.00
2019-02-01T07:02:57.296Z,0.00
2019-02-01T07:03:57.384Z,0.00
2019-02-01T07:04:57.277Z,0.00
2019-02-01T07:05:57.308Z,0.00
2019-02-01T07:06:57.426Z,0.00
2019-02-01T07:07:57.433Z,0.00
2019-02-01T07:08:57.453Z,0.00
2019-02-01T07:09:57.473Z,0.00
2019-02-01T07:10:57.370Z,0.00
2019-02-01T07:11:57.503Z,0.00
2019-02-01T07:12:57.497Z,0.00
2019-02-01T07:13:57.452Z,0.00
2019-02-01T07:14:57.435Z,0.00
2019-02-01T07:15:57.523Z,0.00
2019-02-01T07:16:57.467Z,0.00
2019-02-01T07:17:57.525Z,0.00
2019-02-01T07:18:57.615Z,0.00
2019-02-01T07:19:57.627Z,0.00
2019-02-01T07:21:04.162Z,0.00
2019-02-01T07:21:57.656Z,0.00
2019-02-01T07:22:57.662Z,0.00
2019-02-01T07:23:57.635Z,0.00
2019-02-01T07:24:57.608Z,0.00
2019-02-01T07:25:57.645Z,0.00
2019-02-01T07:26:57.609Z,0.00
2019-02-01T07:27:57.853Z,0.00
2019-02-01T07:28:57.764Z,0.00
2019-02-01T07:29:57.785Z,0.00
2019-02-01T07:30:57.682Z,0.00
2019-02-01T07:31:57.716Z,0.00
2019-02-01T07:32:57.821Z,0.00
2019-02-01T07:33:57.729Z,0.00
2019-02-01T07:34:57.739Z,0.00
2019-02-01T07:35:57.876Z,0.00
2019-02-01T07:36:57.779Z,0.00
2019-02-01T07:37:57.955Z,0.00
2019-02-01T07:38:57.786Z,0.00
2019-02-01T07:39:57.838Z,0.00
2019-02-01T07:40:57.952Z,0.00
2019-02-01T07:41:57.850Z,0.00
2019-02-01T07:42:57.959Z,0.00
2019-02-01T07:43:58.005Z,0.00
2019-02-01T07:44:58.110Z,0.00
2019-02-01T07:45:58.029Z,0.00
2019-02-01T07:46:58.041Z,0.00
2019-02-01T07:47:58.034Z,0.00
2019-02-01T07:48:58.071Z,0.00
2019-02-01T07:49:57.976Z,0.00
2019-02-01T07:50:58.038Z,0.00
2019-02-01T07:51:58.005Z,0.00
2019-02-01T07:52:58.135Z,0.00
2019-02-01T07:53:58.030Z,0.00
2019-02-01T07:54:58.179Z,0.00
2019-02-01T07:55:58.076Z,0.00
2019-02-01T07:56:58.196Z,0.00
2019-02-01T07:57:58.094Z,0.00
2019-02-01T07:58:58.331Z,0.00
2019-02-01T07:59:58.253Z,0.00
2019-02-01T08:00:58.269Z,0.00
2019-02-01T08:01:58.283Z,0.00
2019-02-01T08:02:58.288Z,0.00
2019-02-01T08:03:58.351Z,0.00
2019-02-01T08:04:58.209Z,0.00
2019-02-01T08:05:58.336Z,0.00
2019-02-01T08:06:58.351Z,0.00
2019-02-01T08:07:58.365Z,0.00
2019-02-01T08:08:58.418Z,0.00
2019-02-01T08:09:58.393Z,0.00
2019-02-01T08:10:58.281Z,0.00
2019-02-01T08:11:58.423Z,0.00
2019-02-01T08:12:58.443Z,0.00
2019-02-01T08:13:58.545Z,0.00
2019-02-01T08:14:58.350Z,0.00
2019-02-01T08:15:58.374Z,0.00
2019-02-01T08:16:58.383Z,0.00
2019-02-01T08:17:58.406Z,0.00
2019-02-01T08:18:58.476Z,0.00
2019-02-01T08:19:58.559Z,0.00
2019-02-01T08:20:58.453Z,0.00
2019-02-01T08:21:58.467Z,0.00
2019-02-01T08:22:58.487Z,0.00
2019-02-01T08:23:58.605Z,0.00
2019-02-01T08:24:58.529Z,0.00
2019-02-01T08:25:58.543Z,0.00
2019-02-01T08:26:58.539Z,0.00
2019-02-01T08:27:58.568Z,0.00
2019-02-01T08:28:58.736Z,0.00
2019-02-01T08:29:58.580Z,0.00
2019-02-01T08:30:59.041Z,0.00
2019-02-01T08:31:58.634Z,0.00
2019-02-01T08:32:58.633Z,0.00
2019-02-01T08:33:58.699Z,0.00
2019-02-01T08:34:58.662Z,0.00
2019-02-01T08:35:58.682Z,0.00
2019-02-01T08:36:58.694Z,0.00
2019-02-01T08:37:58.694Z,5.63
2019-02-01T08:38:58.835Z,5.63
2019-02-01T08:39:58.750Z,5.63
2019-02-01T08:40:58.861Z,5.63
2019-02-01T08:41:58.819Z,5.63
2019-02-01T08:43:06.249Z,11.25
2019-02-01T08:43:59.059Z,11.25
2019-02-01T08:44:58.923Z,11.25
2019-02-01T08:45:58.817Z,16.88
2019-02-01T08:46:58.830Z,16.88
2019-02-01T08:47:58.849Z,22.50
2019-02-01T08:48:59.098Z,22.50
2019-02-01T08:49:58.998Z,28.13
2019-02-01T08:50:58.912Z,28.13
2019-02-01T08:51:58.915Z,28.13
2019-02-01T08:52:58.916Z,33.75
2019-02-01T08:53:58.955Z,39.38
2019-02-01T08:54:59.393Z,39.38
2019-02-01T08:55:59.095Z,45.00
2019-02-01T08:56:59.044Z,45.00
2019-02-01T08:57:59.006Z,50.63
2019-02-01T08:58:59.145Z,56.25
2019-02-01T08:59:59.190Z,56.25
2019-02-01T09:00:59.044Z,61.88
2019-02-01T09:01:59.067Z,67.50
2019-02-01T09:02:59.200Z,67.50
2019-02-01T09:03:59.087Z,73.13
2019-02-01T09:04:59.323Z,78.75
2019-02-01T09:05:59.132Z,84.38
2019-02-01T09:06:59.120Z,90.00
2019-02-01T09:07:59.184Z,106.88
2019-02-01T09:08:59.283Z,106.88
2019-02-01T09:09:59.352Z,118.13
2019-02-01T09:10:59.206Z,123.75
2019-02-01T09:11:59.333Z,129.38
2019-02-01T09:12:59.235Z,129.38
2019-02-01T09:13:59.361Z,135.00
2019-02-01T09:14:59.328Z,140.63
2019-02-01T09:15:59.298Z,146.25
2019-02-01T09:16:59.413Z,157.50
2019-02-01T09:17:59.331Z,157.50
2019-02-01T09:18:59.483Z,157.50
2019-02-01T09:19:59.458Z,163.13
2019-02-01T09:20:59.356Z,163.13
2019-02-01T09:21:59.391Z,174.38
2019-02-01T09:22:59.388Z,174.38
2019-02-01T09:23:59.679Z,180.00
2019-02-01T09:24:59.413Z,185.63
2019-02-01T09:25:59.569Z,191.25
2019-02-01T09:26:59.588Z,202.50
2019-02-01T09:27:59.605Z,202.50
2019-02-01T09:28:59.652Z,208.13
2019-02-01T09:29:59.528Z,208.13
2019-02-01T09:30:59.547Z,213.75
2019-02-01T09:31:59.567Z,219.38
2019-02-01T09:32:59.550Z,225.00
2019-02-01T09:33:59.738Z,230.63
2019-02-01T09:34:59.731Z,230.63
2019-02-01T09:35:59.636Z,236.25
2019-02-01T09:36:59.648Z,241.88
2019-02-01T09:37:59.686Z,241.88
2019-02-01T09:38:59.844Z,247.50
2019-02-01T09:39:59.694Z,253.13
2019-02-01T09:40:59.725Z,253.13
2019-02-01T09:41:59.765Z,258.75
2019-02-01T09:42:59.756Z,258.75
2019-02-01T09:43:59.817Z,270.00
2019-02-01T09:44:59.907Z,275.63
2019-02-01T09:45:59.827Z,281.25
2019-02-01T09:46:59.846Z,286.88
2019-02-01T09:47:59.965Z,286.88
2019-02-01T09:48:59.977Z,298.13
2019-02-01T09:50:00.004Z,292.50
2019-02-01T09:51:00.035Z,298.13
2019-02-01T09:52:02.424Z,303.75
2019-02-01T09:53:00.065Z,309.38
2019-02-01T09:54:00.120Z,320.63
2019-02-01T09:55:00.000Z,326.25
2019-02-01T09:56:00.000Z,326.25
2019-02-01T09:57:00.153Z,331.88
2019-02-01T09:58:00.066Z,337.50
2019-02-01T09:59:00.225Z,348.75
2019-02-01T10:00:00.357Z,354.38
2019-02-01T10:01:00.224Z,360.00
2019-02-01T10:02:00.243Z,376.88
2019-02-01T10:03:00.148Z,393.75
2019-02-01T10:04:00.336Z,405.00
2019-02-01T10:05:00.320Z,410.63
2019-02-01T10:06:00.227Z,416.25
2019-02-01T10:07:00.351Z,410.63
2019-02-01T10:08:00.275Z,410.63
2019-02-01T10:09:00.441Z,410.63
2019-02-01T10:10:00.336Z,421.88
2019-02-01T10:11:00.435Z,433.13
2019-02-01T10:12:00.459Z,433.13
2019-02-01T10:13:00.473Z,438.75
2019-02-01T10:14:00.424Z,444.38
2019-02-01T10:15:00.410Z,450.00
2019-02-01T10:16:00.429Z,450.00
2019-02-01T10:17:00.600Z,461.25
2019-02-01T10:18:00.592Z,472.50
2019-02-01T10:19:00.494Z,483.75
2019-02-01T10:20:00.540Z,489.38
2019-02-01T10:21:00.536Z,483.75
2019-02-01T10:22:00.657Z,483.75
2019-02-01T10:23:00.627Z,483.75
2019-02-01T10:24:00.677Z,489.38
2019-02-01T10:25:00.732Z,506.25
2019-02-01T10:26:00.766Z,528.75
2019-02-01T10:27:00.733Z,551.25
2019-02-01T10:28:00.802Z,551.25
2019-02-01T10:29:00.711Z,545.63
2019-02-01T10:30:00.728Z,540.00
2019-02-01T10:31:00.754Z,562.50
2019-02-01T10:32:00.777Z,568.13
2019-02-01T10:33:01.188Z,585.00
2019-02-01T10:34:00.820Z,601.88
2019-02-01T10:35:00.855Z,607.50
2019-02-01T10:36:00.981Z,613.13
2019-02-01T10:37:00.892Z,624.38
2019-02-01T10:38:01.122Z,624.38
2019-02-01T10:39:00.924Z,630.00
2019-02-01T10:40:00.960Z,630.00
2019-02-01T10:41:01.091Z,630.00
2019-02-01T10:42:03.710Z,618.75
2019-02-01T10:43:01.109Z,630.00
2019-02-01T10:44:01.034Z,641.25
2019-02-01T10:45:01.182Z,652.50
2019-02-01T10:46:01.208Z,652.50
2019-02-01T10:47:10.716Z,663.75
2019-02-01T10:48:01.238Z,663.75
2019-02-01T10:49:01.156Z,669.38
2019-02-01T10:50:01.189Z,658.13
2019-02-01T10:51:01.210Z,641.25
2019-02-01T10:52:01.239Z,646.88
2019-02-01T10:53:01.409Z,669.38
2019-02-01T10:54:01.390Z,669.38
2019-02-01T10:55:01.280Z,663.75
2019-02-01T10:56:01.436Z,669.38
2019-02-01T10:57:01.461Z,680.63
2019-02-01T10:58:01.520Z,714.38
2019-02-01T10:59:01.399Z,731.25
2019-02-01T11:00:01.430Z,736.88
2019-02-01T11:01:01.439Z,742.50
2019-02-01T11:02:01.474Z,736.88
2019-02-01T11:03:01.584Z,720.00
2019-02-01T11:04:01.514Z,714.38
2019-02-01T11:05:01.650Z,731.25
2019-02-01T11:06:01.677Z,736.88
2019-02-01T11:07:01.704Z,793.13
2019-02-01T11:08:01.877Z,759.38
2019-02-01T11:09:01.637Z,736.88
2019-02-01T11:10:01.701Z,731.25
2019-02-01T11:11:01.707Z,770.63
2019-02-01T11:12:01.738Z,793.13
2019-02-01T11:13:01.736Z,849.38
2019-02-01T11:14:01.930Z,826.88
2019-02-01T11:15:01.798Z,843.75
2019-02-01T11:16:01.819Z,815.63
2019-02-01T11:17:01.824Z,894.38
2019-02-01T11:18:01.907Z,855.00
2019-02-01T11:19:01.893Z,883.13
2019-02-01T11:20:02.034Z,900.00
2019-02-01T11:21:01.931Z,871.88
2019-02-01T11:22:01.967Z,894.38
2019-02-01T11:23:02.116Z,928.13
2019-02-01T11:24:02.033Z,933.75
2019-02-01T11:25:02.061Z,973.13
2019-02-01T11:26:02.069Z,961.88
2019-02-01T11:27:02.078Z,933.75
2019-02-01T11:28:02.264Z,973.13
2019-02-01T11:29:02.260Z,984.38
2019-02-01T11:30:02.179Z,995.63
2019-02-01T11:31:02.197Z,1018.13
2019-02-01T11:32:02.223Z,1018.13
2019-02-01T11:33:02.355Z,1063.13
2019-02-01T11:34:02.263Z,1012.50
2019-02-01T11:35:02.426Z,1046.25
2019-02-01T11:36:02.445Z,1074.38
2019-02-01T11:38:02.561Z,1141.88
2019-02-01T11:39:02.419Z,1108.13
2019-02-01T11:40:02.440Z,1130.63
2019-02-01T11:41:02.466Z,1158.75
2019-02-01T11:42:02.502Z,1175.63
2019-02-01T11:43:02.633Z,1192.50
2019-02-01T11:44:02.531Z,1192.50
2019-02-01T11:45:02.693Z,1192.50
2019-02-01T11:46:02.631Z,1181.25
2019-02-01T11:47:02.646Z,1203.75
2019-02-01T11:48:02.829Z,1198.13
2019-02-01T11:49:02.720Z,1158.75
2019-02-01T11:50:03.459Z,1136.25
2019-02-01T11:51:02.868Z,1203.75
2019-02-01T11:52:02.902Z,1271.25
2019-02-01T11:53:02.918Z,1265.63
2019-02-01T11:54:02.831Z,1226.25
2019-02-01T11:55:02.849Z,1220.63
2019-02-01T11:56:02.991Z,1276.88
2019-02-01T11:57:02.911Z,1198.13
2019-02-01T11:58:02.946Z,1248.75
2019-02-01T11:59:07.857Z,1254.38
2019-02-01T12:00:03.001Z,1260.00
2019-02-01T12:01:05.111Z,1237.50
2019-02-01T12:02:03.079Z,1333.13
2019-02-01T12:03:03.095Z,1203.75
2019-02-01T12:04:03.115Z,1265.63
2019-02-01T12:05:03.261Z,1305.00
2019-02-01T12:06:03.304Z,1316.25
2019-02-01T12:07:03.309Z,1276.88
2019-02-01T12:08:03.245Z,1451.25
2019-02-01T12:09:03.259Z,1456.88
2019-02-01T12:10:03.407Z,1445.63
2019-02-01T12:11:03.486Z,1462.50
2019-02-01T12:12:03.345Z,1468.13
2019-02-01T12:13:03.498Z,1468.13
2019-02-01T12:14:03.402Z,1456.88
2019-02-01T12:15:03.452Z,1468.13
2019-02-01T12:16:03.518Z,1485.00
2019-02-01T12:17:03.672Z,1485.00
2019-02-01T12:18:03.655Z,1558.13
2019-02-01T12:19:03.583Z,1580.63
2019-02-01T12:20:03.587Z,1580.63
2019-02-01T12:21:04.514Z,1530.00
2019-02-01T12:22:03.766Z,1575.00
2019-02-01T12:23:03.686Z,1676.25
2019-02-01T12:24:03.819Z,1755.00
2019-02-01T12:25:03.847Z,1743.75
2019-02-01T12:26:03.985Z,1721.25
2019-02-01T12:27:03.787Z,1704.38
2019-02-01T12:28:03.964Z,1788.75
2019-02-01T12:29:03.847Z,1794.38
2019-02-01T12:30:03.898Z,1828.13
2019-02-01T12:31:03.901Z,1867.50
2019-02-01T12:32:04.030Z,1878.75
2019-02-01T12:33:04.009Z,1873.13
2019-02-01T12:34:04.107Z,1884.38
2019-02-01T12:35:04.045Z,1901.25
2019-02-01T12:36:04.168Z,1890.00
2019-02-01T12:37:04.199Z,1856.25
2019-02-01T12:38:04.110Z,1828.13
2019-02-01T12:39:04.152Z,1805.63
2019-02-01T12:40:04.179Z,1833.75
2019-02-01T12:41:04.206Z,1794.38
2019-02-01T12:42:04.366Z,1760.63
2019-02-01T12:43:04.281Z,1794.38
2019-02-01T12:44:04.425Z,1777.50
2019-02-01T12:45:04.338Z,1839.38
2019-02-01T12:46:04.366Z,1822.50
2019-02-01T12:47:04.596Z,1771.88
2019-02-01T12:48:04.438Z,1760.63
2019-02-01T12:49:04.552Z,1788.75
2019-02-01T12:50:04.504Z,1878.75
2019-02-01T12:51:04.520Z,1828.13
2019-02-01T12:52:04.713Z,1884.38
2019-02-01T12:53:11.195Z,1833.75
2019-02-01T12:54:04.702Z,1833.75
2019-02-01T12:55:04.618Z,1918.13
2019-02-01T12:56:04.762Z,1963.13
2019-02-01T12:57:04.758Z,1951.88
2019-02-01T12:58:04.743Z,1929.38
2019-02-01T12:59:04.813Z,1968.75
2019-02-01T13:00:04.882Z,1996.88
2019-02-01T13:01:04.783Z,2013.75